Time;durP1;ratioP1;P1;durP2;ratioP2;P2;SDS_P1;SDS_P2;PMS_P1;PMS_P2;Temp;Humidity;BMP_temperature;BMP_pressure;BME280_temperature;BME280_humidity;BME280_pressure;Samples;Min_cycle;Max_cycle;Signal;HPM_P1;HPM_P2
2022/12/02 00:00:50;;;;;;;76.30;27.97;;;1.10;99.90;;;;;;4940429;28;20326;-79
2022/12/02 00:03:20;;;;;;;70.53;27.73;;;1.10;99.90;;;;;;4939092;29;20327;-79
2022/12/02 00:05:49;;;;;;;71.67;28.30;;;1.10;99.90;;;;;;4942402;29;20235;-79
2022/12/02 00:08:20;;;;;;;72.67;27.53;;;1.00;99.90;;;;;;4942099;28;20257;-79
2022/12/02 00:10:49;;;;;;;74.03;27.80;;;1.00;99.90;;;;;;4935806;28;20234;-79
2022/12/02 00:13:23;;;;;;;73.77;27.60;;;1.00;99.90;;;;;;4942606;28;20238;-80
2022/12/02 00:15:52;;;;;;;68.63;26.57;;;1.00;99.90;;;;;;4942862;29;20816;-80
2022/12/02 00:18:19;;;;;;;74.77;27.40;;;1.00;99.90;;;;;;4939097;28;20306;-79
2022/12/02 00:20:47;;;;;;;71.03;26.80;;;1.00;99.90;;;;;;4942908;29;20894;-79
2022/12/02 00:23:14;;;;;;;69.87;26.60;;;1.00;99.90;;;;;;4937191;28;20523;-79
2022/12/02 00:25:43;;;;;;;68.17;26.90;;;1.00;99.90;;;;;;4942230;28;20241;-80
2022/12/02 00:28:10;;;;;;;65.50;25.50;;;1.00;99.90;;;;;;4941083;28;20282;-79
2022/12/02 00:30:39;;;;;;;62.47;25.80;;;1.10;99.90;;;;;;4946091;29;20231;-79
2022/12/02 00:33:08;;;;;;;65.07;24.87;;;1.10;99.90;;;;;;4940762;28;20243;-79
2022/12/02 00:35:35;;;;;;;63.13;25.37;;;1.10;99.90;;;;;;4945061;28;20932;-78
2022/12/02 00:38:02;;;;;;;68.03;26.40;;;1.10;99.90;;;;;;4940389;29;20318;-79
2022/12/02 00:40:29;;;;;;;66.40;24.93;;;1.20;99.90;;;;;;4938290;28;20236;-78
2022/12/02 00:46:30;;;;;;;60.93;25.13;;;1.10;99.90;;;;;;4942310;29;20231;-79
2022/12/02 00:48:45;;;;;;;62.20;23.83;;;1.20;99.90;;;;;;4904763;29;20259;-78
2022/12/02 00:51:12;;;;;;;62.63;24.70;;;1.20;99.90;;;;;;4901259;29;20311;-78
2022/12/02 00:53:39;;;;;;;63.30;25.83;;;1.20;99.90;;;;;;4921639;28;20233;-78
2022/12/02 00:56:07;;;;;;;67.17;25.60;;;1.10;99.90;;;;;;4934942;28;20500;-80
2022/12/02 00:58:34;;;;;;;62.67;25.77;;;1.10;99.90;;;;;;4942732;28;20232;-80
2022/12/02 01:01:02;;;;;;;62.80;25.20;;;1.10;99.90;;;;;;4943322;29;20228;-80
2022/12/02 01:03:29;;;;;;;64.90;26.07;;;1.10;99.90;;;;;;4939487;29;20241;-80
2022/12/02 01:05:56;;;;;;;60.57;26.33;;;1.10;99.90;;;;;;4942973;29;20226;-80
2022/12/02 01:08:26;;;;;;;63.70;27.70;;;1.10;99.90;;;;;;4941243;28;20641;-79
2022/12/02 01:10:52;;;;;;;65.03;27.10;;;1.10;99.90;;;;;;4945785;29;20862;-80
2022/12/02 01:13:20;;;;;;;61.77;25.97;;;1.00;99.90;;;;;;4937662;28;20254;-80
2022/12/02 01:15:47;;;;;;;66.50;27.87;;;1.00;99.90;;;;;;4943216;29;20771;-80
2022/12/02 01:18:15;;;;;;;66.27;28.70;;;1.00;99.90;;;;;;4943039;28;20232;-79
2022/12/02 01:20:44;;;;;;;66.60;27.73;;;1.00;99.90;;;;;;4946128;28;20232;-79
2022/12/02 01:23:11;;;;;;;66.20;28.73;;;1.00;99.90;;;;;;4939202;28;21042;-79
2022/12/02 01:25:37;;;;;;;65.20;27.80;;;0.90;99.90;;;;;;4943002;29;20592;-79
2022/12/02 01:28:05;;;;;;;69.60;29.77;;;0.90;99.90;;;;;;4937595;29;20271;-79
2022/12/02 01:30:32;;;;;;;73.97;30.97;;;0.90;99.90;;;;;;4938330;29;20258;-80
2022/12/02 01:32:59;;;;;;;71.30;30.73;;;0.90;99.90;;;;;;4941783;29;20235;-80
2022/12/02 01:35:28;;;;;;;139.23;34.33;;;0.80;99.90;;;;;;4938659;28;20717;-79
2022/12/02 01:37:55;;;;;;;66.50;29.63;;;0.80;99.90;;;;;;4941601;29;20237;-80
2022/12/02 01:40:22;;;;;;;74.40;31.30;;;0.90;99.90;;;;;;4940471;28;20224;-80
2022/12/02 01:42:49;;;;;;;73.13;31.17;;;0.90;99.90;;;;;;4932596;29;20236;-79
2022/12/02 01:45:16;;;;;;;73.30;30.70;;;0.90;99.90;;;;;;4936399;28;20229;-79
2022/12/02 01:47:43;;;;;;;69.93;30.97;;;0.90;99.90;;;;;;4955444;28;20256;-79
2022/12/02 01:50:13;;;;;;;85.30;30.83;;;0.90;99.90;;;;;;4942630;28;20225;-79
2022/12/02 01:52:41;;;;;;;71.67;30.00;;;0.90;99.90;;;;;;4938221;29;20254;-79
2022/12/02 01:55:13;;;;;;;69.50;30.73;;;0.90;99.90;;;;;;4939512;28;20227;-79
2022/12/02 01:57:39;;;;;;;68.50;30.30;;;0.90;99.90;;;;;;4945575;28;20343;-79
2022/12/02 02:00:08;;;;;;;67.67;31.63;;;0.90;99.90;;;;;;4942102;28;20251;-79
2022/12/02 02:02:39;;;;;;;67.33;31.33;;;0.90;99.90;;;;;;4939885;28;20339;-79
2022/12/02 02:05:11;;;;;;;65.37;31.03;;;0.90;99.90;;;;;;4939483;28;20312;-80
2022/12/02 02:07:39;;;;;;;59.40;28.67;;;0.90;99.90;;;;;;4944622;29;20231;-79
2022/12/02 02:10:08;;;;;;;64.80;30.03;;;0.80;99.90;;;;;;4943607;28;20261;-80
2022/12/02 02:12:35;;;;;;;65.30;30.07;;;0.90;99.90;;;;;;4940312;28;20235;-79
2022/12/02 02:15:04;;;;;;;64.23;28.80;;;0.90;99.90;;;;;;4941289;29;20658;-80
2022/12/02 02:17:32;;;;;;;60.07;29.70;;;0.90;99.90;;;;;;4940005;28;20879;-80
2022/12/02 02:19:58;;;;;;;65.43;30.33;;;0.90;99.90;;;;;;4940668;28;20338;-80
2022/12/02 02:22:31;;;;;;;63.03;29.97;;;0.90;99.90;;;;;;4940436;28;20231;-79
2022/12/02 02:24:59;;;;;;;66.20;30.00;;;0.90;99.90;;;;;;4937033;28;20222;-80
2022/12/02 02:27:28;;;;;;;62.63;29.60;;;0.90;99.90;;;;;;4940469;29;20222;-81
2022/12/02 02:29:54;;;;;;;61.33;29.17;;;0.90;99.90;;;;;;4937699;29;20324;-79
2022/12/02 02:32:22;;;;;;;72.40;31.07;;;0.90;99.90;;;;;;4937595;29;20230;-79
2022/12/02 02:34:49;;;;;;;59.37;28.87;;;0.90;99.90;;;;;;4939333;29;20610;-79
2022/12/02 02:37:15;;;;;;;60.67;29.17;;;0.80;99.90;;;;;;4939338;29;20235;-79
2022/12/02 02:39:43;;;;;;;54.17;27.20;;;0.80;99.90;;;;;;4940086;29;20227;-79
2022/12/02 02:42:11;;;;;;;57.70;28.33;;;0.80;99.90;;;;;;4944001;28;20219;-80
2022/12/02 02:44:37;;;;;;;60.03;29.73;;;0.80;99.90;;;;;;4943470;29;20283;-79
2022/12/02 02:47:04;;;;;;;57.23;28.33;;;0.80;99.90;;;;;;4941351;29;20220;-79
2022/12/02 02:49:33;;;;;;;57.87;28.27;;;0.80;99.90;;;;;;4940098;29;20766;-79
2022/12/02 02:52:00;;;;;;;60.63;30.43;;;0.80;99.90;;;;;;4940650;28;20242;-79
2022/12/02 02:54:27;;;;;;;55.17;28.80;;;0.70;99.90;;;;;;4940298;28;20230;-80
2022/12/02 02:56:56;;;;;;;58.87;28.80;;;0.70;99.90;;;;;;4945408;29;20226;-79
2022/12/02 02:59:24;;;;;;;55.43;27.83;;;0.70;99.90;;;;;;4934861;29;20235;-80
2022/12/02 03:01:52;;;;;;;56.67;29.13;;;0.60;99.90;;;;;;4939280;29;20750;-80
2022/12/02 03:04:22;;;;;;;66.17;29.73;;;0.60;99.90;;;;;;4938292;29;20246;-80
2022/12/02 03:06:50;;;;;;;60.80;30.57;;;0.60;99.90;;;;;;4945800;28;20232;-79
2022/12/02 03:09:22;;;;;;;58.13;29.30;;;0.60;99.90;;;;;;4938883;28;20233;-79
2022/12/02 03:11:52;;;;;;;55.57;28.70;;;0.50;99.90;;;;;;4949993;28;20230;-81
2022/12/02 03:14:21;;;;;;;63.23;31.73;;;0.50;99.90;;;;;;4941595;28;20261;-81
2022/12/02 03:16:50;;;;;;;60.73;30.10;;;0.50;99.90;;;;;;4945719;29;20305;-80
2022/12/02 03:19:18;;;;;;;60.90;29.90;;;0.50;99.90;;;;;;4945893;28;20866;-81
2022/12/02 03:21:45;;;;;;;60.00;29.17;;;0.50;99.90;;;;;;4945871;28;20325;-80
2022/12/02 03:24:12;;;;;;;63.87;30.63;;;0.50;99.90;;;;;;4934002;29;20323;-81
2022/12/02 03:26:40;;;;;;;75.00;30.63;;;0.40;99.90;;;;;;4946460;29;20235;-79
2022/12/02 03:29:09;;;;;;;63.37;30.83;;;0.50;99.90;;;;;;4937041;28;20215;-79
2022/12/02 03:31:36;;;;;;;71.37;29.93;;;0.50;99.90;;;;;;4933037;28;20705;-80
2022/12/02 03:34:05;;;;;;;61.10;30.27;;;0.50;99.90;;;;;;4936992;28;20628;-80
2022/12/02 03:36:32;;;;;;;59.53;30.57;;;0.50;99.90;;;;;;4946480;28;20706;-78
2022/12/02 03:38:59;;;;;;;66.10;30.37;;;0.50;99.90;;;;;;4933922;29;20790;-80
2022/12/02 03:41:26;;;;;;;67.57;29.80;;;0.50;99.90;;;;;;4938084;28;20223;-80
2022/12/02 03:43:55;;;;;;;63.60;29.23;;;0.50;99.90;;;;;;4942759;29;20775;-79
2022/12/02 03:46:22;;;;;;;63.43;31.07;;;0.50;99.90;;;;;;4940188;28;20243;-79
2022/12/02 03:48:49;;;;;;;61.20;29.93;;;0.40;99.90;;;;;;4943978;28;20231;-79
2022/12/02 03:51:17;;;;;;;85.10;31.07;;;0.40;99.90;;;;;;4940707;28;20218;-79
2022/12/02 03:53:45;;;;;;;60.90;30.13;;;0.40;99.90;;;;;;4929692;29;20556;-80
2022/12/02 03:56:13;;;;;;;66.97;30.80;;;0.40;99.90;;;;;;4929559;28;20747;-78
2022/12/02 03:58:46;;;;;;;75.53;30.80;;;0.40;99.90;;;;;;4947392;28;20226;-79
2022/12/02 04:01:14;;;;;;;57.70;29.67;;;0.40;99.90;;;;;;4945889;28;20228;-81
2022/12/02 04:03:40;;;;;;;86.57;31.67;;;0.40;99.90;;;;;;4935536;28;20641;-81
2022/12/02 04:06:10;;;;;;;64.13;31.60;;;0.50;99.90;;;;;;4944192;28;20219;-81
2022/12/02 04:08:39;;;;;;;63.53;30.30;;;0.40;99.90;;;;;;4934289;29;20224;-82
2022/12/02 04:11:06;;;;;;;64.47;29.93;;;0.40;99.90;;;;;;4934258;28;20220;-81
2022/12/02 04:13:33;;;;;;;95.70;33.07;;;0.40;99.90;;;;;;4943539;29;20250;-81
2022/12/02 04:15:59;;;;;;;116.37;33.80;;;0.40;99.90;;;;;;4946331;29;20242;-80
2022/12/02 04:18:26;;;;;;;62.10;30.87;;;0.50;99.90;;;;;;4945412;28;20226;-80
2022/12/02 04:20:55;;;;;;;64.53;29.27;;;0.40;99.90;;;;;;4937997;29;20236;-80
2022/12/02 04:23:21;;;;;;;63.07;30.97;;;0.50;99.90;;;;;;4939285;29;20223;-80
2022/12/02 04:25:49;;;;;;;65.70;30.40;;;0.40;99.90;;;;;;4942641;29;20233;-79
2022/12/02 04:28:17;;;;;;;64.63;30.87;;;0.40;99.90;;;;;;4938886;28;20607;-78
2022/12/02 04:30:43;;;;;;;151.27;35.03;;;0.50;99.90;;;;;;4940023;28;20616;-80
2022/12/02 04:33:10;;;;;;;61.83;30.80;;;0.50;99.90;;;;;;4940586;28;20477;-78
2022/12/02 04:35:37;;;;;;;74.97;31.23;;;0.50;99.90;;;;;;4945981;29;20302;-79
2022/12/02 04:38:05;;;;;;;169.30;35.13;;;0.50;99.90;;;;;;4941996;28;20300;-80
2022/12/02 04:40:32;;;;;;;96.93;31.37;;;0.50;99.90;;;;;;4941848;28;20231;-77
2022/12/02 04:43:00;;;;;;;73.97;31.07;;;0.50;99.90;;;;;;4930666;29;20228;-78
2022/12/02 04:45:27;;;;;;;73.17;30.50;;;0.40;99.90;;;;;;4943354;28;20254;-78
2022/12/02 04:47:54;;;;;;;65.67;29.50;;;0.40;99.90;;;;;;4940222;29;20838;-78
2022/12/02 04:50:21;;;;;;;135.60;33.57;;;0.50;99.90;;;;;;4940995;28;20234;-79
2022/12/02 04:52:48;;;;;;;125.83;32.67;;;0.50;99.90;;;;;;4952378;28;20326;-78
2022/12/02 04:55:15;;;;;;;59.97;30.20;;;0.50;99.90;;;;;;4940823;28;20652;-79
2022/12/02 04:57:42;;;;;;;55.83;28.17;;;0.40;99.90;;;;;;4944784;29;21038;-80
2022/12/02 05:00:11;;;;;;;62.23;30.93;;;0.50;99.90;;;;;;4940649;29;20227;-79
2022/12/02 05:02:38;;;;;;;58.20;29.07;;;0.40;99.90;;;;;;4932116;29;20239;-78
2022/12/02 05:05:05;;;;;;;61.67;28.73;;;0.40;99.90;;;;;;4931677;28;20659;-78
2022/12/02 05:07:32;;;;;;;71.23;28.60;;;0.40;99.90;;;;;;4938967;29;20284;-79
2022/12/02 05:09:59;;;;;;;68.13;29.03;;;0.40;99.90;;;;;;4937972;28;20962;-80
2022/12/02 05:12:25;;;;;;;60.87;29.37;;;0.40;99.90;;;;;;4929106;29;20746;-78
2022/12/02 05:14:52;;;;;;;56.87;29.17;;;0.30;99.90;;;;;;4936244;28;20235;-80
2022/12/02 05:17:20;;;;;;;76.40;29.57;;;0.40;99.90;;;;;;4944434;28;20220;-79
2022/12/02 05:19:47;;;;;;;56.50;27.90;;;0.40;99.90;;;;;;4944750;28;20740;-79
2022/12/02 05:22:14;;;;;;;157.17;34.47;;;0.40;99.90;;;;;;4937954;28;20573;-79
2022/12/02 05:24:41;;;;;;;92.37;30.93;;;0.40;99.90;;;;;;4944986;28;20249;-81
2022/12/02 05:27:08;;;;;;;58.43;28.40;;;0.40;99.90;;;;;;4936798;28;20237;-82
2022/12/02 05:29:35;;;;;;;57.00;27.53;;;0.50;99.90;;;;;;4945518;29;20305;-80
2022/12/02 05:32:05;;;;;;;65.07;29.57;;;0.40;99.90;;;;;;4956435;28;20331;-81
2022/12/02 05:34:36;;;;;;;342.43;42.17;;;0.40;99.90;;;;;;4944531;29;20493;-79
2022/12/02 05:37:03;;;;;;;128.87;32.47;;;0.50;99.90;;;;;;4946880;29;20226;-79
2022/12/02 05:39:29;;;;;;;54.80;28.13;;;0.50;99.90;;;;;;4940970;29;20282;-81
2022/12/02 05:42:01;;;;;;;92.50;29.97;;;0.50;99.90;;;;;;4944568;29;20326;-79
2022/12/02 05:44:28;;;;;;;58.73;28.53;;;0.50;99.90;;;;;;4943011;29;20254;-80
2022/12/02 05:47:00;;;;;;;70.43;29.17;;;0.50;99.90;;;;;;4941547;28;20608;-81
2022/12/02 05:49:27;;;;;;;71.23;28.73;;;0.50;99.90;;;;;;4955838;28;20232;-79
2022/12/02 05:51:57;;;;;;;196.53;34.40;;;0.50;99.90;;;;;;4959519;28;20306;-79
2022/12/02 05:54:25;;;;;;;67.53;28.83;;;0.50;99.90;;;;;;4945574;28;20298;-80
2022/12/02 05:56:51;;;;;;;54.10;26.70;;;0.50;99.90;;;;;;4943994;28;20231;-79
2022/12/02 05:59:20;;;;;;;91.37;29.80;;;0.50;99.90;;;;;;4945159;28;20293;-80
2022/12/02 06:01:50;;;;;;;54.13;26.50;;;0.50;99.90;;;;;;4945532;28;20233;-80
2022/12/02 06:04:19;;;;;;;54.10;26.63;;;0.50;99.90;;;;;;4944619;28;20308;-79
2022/12/02 06:06:46;;;;;;;52.50;25.77;;;0.50;99.90;;;;;;4947180;28;20230;-80
2022/12/02 06:09:17;;;;;;;81.60;29.27;;;0.50;99.90;;;;;;4942521;28;20233;-80
2022/12/02 06:11:47;;;;;;;58.07;28.40;;;0.40;99.90;;;;;;4940997;28;20336;-80
2022/12/02 06:14:16;;;;;;;50.17;26.37;;;0.50;99.90;;;;;;4936978;29;20316;-80
2022/12/02 06:16:47;;;;;;;75.33;28.40;;;0.50;99.90;;;;;;4942429;29;20238;-81
2022/12/02 06:19:23;;;;;;;92.63;26.90;;;0.40;99.90;;;;;;4941623;28;20217;-80
2022/12/02 06:21:51;;;;;;;53.70;25.57;;;0.50;99.90;;;;;;4941857;29;20321;-81
2022/12/02 06:24:26;;;;;;;65.30;26.97;;;0.50;99.90;;;;;;4957740;28;20228;-77
2022/12/02 06:26:55;;;;;;;136.93;29.93;;;0.50;99.90;;;;;;4942811;28;20250;-77
2022/12/02 06:29:22;;;;;;;169.00;30.80;;;0.50;99.90;;;;;;4933759;28;20239;-77
2022/12/02 06:31:49;;;;;;;51.27;25.20;;;0.50;99.90;;;;;;4937761;29;20322;-77
2022/12/02 06:34:34;;;;;;;57.97;25.67;;;0.50;99.90;;;;;;4940178;28;20662;-76
2022/12/02 06:37:09;;;;;;;97.77;27.63;;;0.50;99.90;;;;;;4944749;28;20227;-75
2022/12/02 06:39:38;;;;;;;71.00;27.83;;;0.60;99.90;;;;;;4935033;28;20264;-76
2022/12/02 06:42:15;;;;;;;259.33;38.77;;;0.60;99.90;;;;;;4937652;28;20230;-77
2022/12/02 06:47:50;;;;;;;82.80;27.20;;;0.60;99.90;;;;;;4930247;29;20238;-76
2022/12/02 06:50:36;;;;;;;55.87;26.60;;;0.60;99.90;;;;;;4938849;28;20215;-76
2022/12/02 06:53:24;;;;;;;53.67;24.30;;;0.60;99.90;;;;;;4934642;29;20841;-76
2022/12/02 06:55:54;;;;;;;51.80;24.73;;;0.60;99.90;;;;;;4936701;28;20323;-76
2022/12/02 06:58:41;;;;;;;55.53;26.60;;;0.60;99.90;;;;;;4939628;28;20363;-75
2022/12/02 07:01:22;;;;;;;58.27;27.90;;;0.60;99.90;;;;;;4948283;28;20234;-77
2022/12/02 07:04:03;;;;;;;54.10;26.77;;;0.60;99.90;;;;;;4943249;28;20266;-77
2022/12/02 07:06:30;;;;;;;225.77;37.07;;;0.60;99.90;;;;;;4941495;28;20227;-76
2022/12/02 07:08:59;;;;;;;74.20;27.53;;;0.60;99.90;;;;;;4938195;28;20234;-76
2022/12/02 07:14:25;;;;;;;83.57;28.40;;;0.70;99.90;;;;;;4937410;28;20351;-77
2022/12/02 07:16:53;;;;;;;108.77;29.40;;;0.70;99.90;;;;;;4937640;29;20223;-76
2022/12/02 07:19:23;;;;;;;152.03;31.87;;;0.70;99.90;;;;;;4937279;28;20736;-76
2022/12/02 07:21:50;;;;;;;65.47;27.80;;;0.70;99.90;;;;;;4940717;29;20230;-76
2022/12/02 07:24:21;;;;;;;104.77;30.77;;;0.70;99.90;;;;;;4943148;28;20898;-76
2022/12/02 07:26:52;;;;;;;62.40;28.30;;;0.70;99.90;;;;;;4940925;28;20278;-76
2022/12/02 07:29:26;;;;;;;74.57;28.30;;;0.70;99.90;;;;;;4941861;28;20226;-76
2022/12/02 07:31:53;;;;;;;76.87;27.57;;;0.70;99.90;;;;;;4945670;28;20247;-76
2022/12/02 07:34:20;;;;;;;69.57;27.50;;;0.70;99.90;;;;;;4923209;28;20578;-76
2022/12/02 07:36:46;;;;;;;56.27;26.30;;;0.70;99.90;;;;;;4940505;28;20231;-76
2022/12/02 07:39:13;;;;;;;63.40;27.67;;;0.70;99.90;;;;;;4944259;28;20227;-76
2022/12/02 07:41:42;;;;;;;85.07;28.83;;;0.70;99.90;;;;;;4934411;29;20325;-76
2022/12/02 07:44:10;;;;;;;64.57;28.33;;;0.70;99.90;;;;;;4941593;28;20247;-76
2022/12/02 07:46:37;;;;;;;55.60;26.30;;;0.70;99.90;;;;;;4945022;28;20231;-76
2022/12/02 07:49:06;;;;;;;55.17;27.00;;;0.70;99.90;;;;;;4942647;29;20222;-75
2022/12/02 07:51:32;;;;;;;56.87;27.97;;;0.70;99.90;;;;;;4940522;28;20235;-76
2022/12/02 07:53:59;;;;;;;54.13;26.23;;;0.70;99.90;;;;;;4936810;28;20944;-76
2022/12/02 07:56:29;;;;;;;55.67;28.27;;;0.70;99.90;;;;;;4939051;28;20231;-76
2022/12/02 07:58:55;;;;;;;108.90;29.87;;;0.70;99.90;;;;;;4937084;28;20238;-76
2022/12/02 08:01:24;;;;;;;55.33;27.23;;;0.70;99.90;;;;;;4937775;28;20572;-77
2022/12/02 08:03:50;;;;;;;101.33;27.93;;;0.80;99.90;;;;;;4943037;28;20703;-77
2022/12/02 08:06:17;;;;;;;57.20;27.77;;;0.70;99.90;;;;;;4939879;28;20279;-76
2022/12/02 08:08:44;;;;;;;56.13;27.13;;;0.80;99.90;;;;;;4930047;28;20235;-76
2022/12/02 08:11:10;;;;;;;65.53;28.00;;;0.80;99.90;;;;;;4940805;28;20228;-77
2022/12/02 08:13:37;;;;;;;59.60;27.23;;;0.80;99.90;;;;;;4934239;28;20441;-77
2022/12/02 08:16:04;;;;;;;63.80;27.40;;;0.80;99.90;;;;;;4938028;28;20226;-76
2022/12/02 08:18:32;;;;;;;75.40;28.10;;;0.80;99.90;;;;;;4941894;28;20308;-76
2022/12/02 08:20:59;;;;;;;63.43;26.83;;;0.80;99.90;;;;;;4933328;28;20745;-77
2022/12/02 08:23:25;;;;;;;66.27;27.03;;;0.80;99.90;;;;;;4934163;29;20709;-77
2022/12/02 08:25:54;;;;;;;56.00;27.40;;;0.80;99.90;;;;;;4934943;28;20310;-77
2022/12/02 08:28:21;;;;;;;55.00;26.47;;;0.80;99.90;;;;;;4940244;28;20304;-78
2022/12/02 08:30:48;;;;;;;54.13;26.77;;;0.90;99.90;;;;;;4934895;29;20228;-78
2022/12/02 08:33:14;;;;;;;57.87;27.30;;;0.90;99.90;;;;;;4930507;28;20767;-79
2022/12/02 08:35:44;;;;;;;56.23;27.57;;;1.00;99.90;;;;;;4947193;28;20243;-78
2022/12/02 08:38:10;;;;;;;52.27;25.80;;;1.00;99.90;;;;;;4940691;29;20224;-78
2022/12/02 08:40:37;;;;;;;56.93;28.47;;;1.10;99.90;;;;;;4935977;28;20216;-78
2022/12/02 08:43:04;;;;;;;57.40;28.50;;;1.10;99.90;;;;;;4936801;29;20226;-79
2022/12/02 08:45:31;;;;;;;54.43;27.40;;;1.20;99.90;;;;;;4945615;28;20228;-78
2022/12/02 08:48:03;;;;;;;59.23;28.33;;;1.30;99.90;;;;;;4941753;29;20233;-78
2022/12/02 08:50:30;;;;;;;56.30;27.73;;;1.30;99.90;;;;;;4947237;28;20233;-78
2022/12/02 08:52:58;;;;;;;55.30;27.63;;;1.30;99.90;;;;;;4945786;29;20313;-78
2022/12/02 08:55:25;;;;;;;57.20;27.60;;;1.40;99.90;;;;;;4946249;28;20239;-77
2022/12/02 08:57:55;;;;;;;56.57;28.03;;;1.40;99.90;;;;;;4946777;29;20236;-77
2022/12/02 09:00:22;;;;;;;53.40;26.90;;;1.40;99.90;;;;;;4935894;28;20231;-77
2022/12/02 09:02:52;;;;;;;61.50;27.70;;;1.40;99.90;;;;;;4941394;28;20245;-77
2022/12/02 09:05:19;;;;;;;59.93;29.07;;;1.50;99.90;;;;;;4947137;28;20346;-78
2022/12/02 09:07:46;;;;;;;53.97;27.27;;;1.40;99.90;;;;;;4944387;28;20216;-77
2022/12/02 09:10:15;;;;;;;54.03;27.07;;;1.50;99.90;;;;;;4947903;28;20242;-77
2022/12/02 09:12:47;;;;;;;59.13;28.00;;;1.50;99.90;;;;;;4937871;28;20243;-77
2022/12/02 09:15:13;;;;;;;73.60;29.67;;;1.50;99.90;;;;;;4941699;28;20229;-77
2022/12/02 09:17:40;;;;;;;55.53;26.87;;;1.50;99.90;;;;;;4947096;28;20231;-78
2022/12/02 09:20:09;;;;;;;54.93;28.43;;;1.50;99.90;;;;;;4930510;29;20723;-77
2022/12/02 09:22:35;;;;;;;58.53;28.37;;;1.50;99.90;;;;;;4940483;28;20232;-77
2022/12/02 09:25:02;;;;;;;61.80;27.63;;;1.50;99.90;;;;;;4948038;28;20220;-77
2022/12/02 09:27:30;;;;;;;56.97;28.10;;;1.50;99.90;;;;;;4946726;28;20238;-77
2022/12/02 09:29:57;;;;;;;57.37;28.27;;;1.50;99.90;;;;;;4936554;29;20825;-77
2022/12/02 09:32:24;;;;;;;58.53;28.10;;;1.50;99.90;;;;;;4943013;28;20628;-77
2022/12/02 09:34:54;;;;;;;57.13;29.00;;;1.50;99.90;;;;;;4938446;29;20306;-77
2022/12/02 09:37:23;;;;;;;78.60;30.20;;;1.50;99.90;;;;;;4937168;28;20648;-77
2022/12/02 09:39:50;;;;;;;58.60;28.73;;;1.50;99.90;;;;;;4937816;29;20233;-77
2022/12/02 09:42:20;;;;;;;55.53;29.17;;;1.50;99.90;;;;;;4937526;28;20221;-77
2022/12/02 09:44:48;;;;;;;57.57;28.07;;;1.50;99.90;;;;;;4944221;28;20249;-77
2022/12/02 09:47:16;;;;;;;62.27;29.37;;;1.50;99.90;;;;;;4944109;28;20860;-77
2022/12/02 09:49:44;;;;;;;70.33;30.00;;;1.50;99.90;;;;;;4945434;29;20482;-77
2022/12/02 09:52:21;;;;;;;57.27;28.60;;;1.50;99.90;;;;;;4938363;28;20222;-77
2022/12/02 09:54:47;;;;;;;57.20;27.33;;;1.50;99.90;;;;;;4933389;29;20227;-77
2022/12/02 09:57:16;;;;;;;59.27;29.50;;;1.60;99.90;;;;;;4928044;28;20221;-77
2022/12/02 09:59:44;;;;;;;56.83;28.53;;;1.60;99.90;;;;;;4936490;29;20734;-77
2022/12/02 10:02:24;;;;;;;55.73;27.27;;;1.60;99.90;;;;;;4940879;28;20230;-77
2022/12/02 10:04:50;;;;;;;56.00;27.43;;;1.60;99.90;;;;;;4934942;29;20230;-77
2022/12/02 10:07:17;;;;;;;61.00;28.87;;;1.60;99.90;;;;;;4945229;28;20572;-77
2022/12/02 10:09:44;;;;;;;61.57;28.70;;;1.60;99.90;;;;;;4947908;28;20716;-77
2022/12/02 10:12:12;;;;;;;53.37;27.57;;;1.70;99.90;;;;;;4942644;28;20245;-77
2022/12/02 10:14:39;;;;;;;62.83;27.67;;;1.70;99.90;;;;;;4935555;29;20720;-77
2022/12/02 10:17:16;;;;;;;58.80;28.23;;;1.80;99.90;;;;;;4947088;28;20880;-77
2022/12/02 10:19:44;;;;;;;57.07;27.53;;;1.80;99.90;;;;;;4943065;28;20759;-77
2022/12/02 10:22:16;;;;;;;59.77;27.77;;;1.80;99.90;;;;;;4942523;28;20492;-77
2022/12/02 10:24:43;;;;;;;59.37;28.60;;;1.80;99.90;;;;;;4958325;28;20637;-77
2022/12/02 10:27:24;;;;;;;54.27;28.30;;;1.80;99.90;;;;;;4933949;28;20528;-77
2022/12/02 10:29:51;;;;;;;58.50;29.90;;;1.70;99.90;;;;;;4938730;28;20231;-77
2022/12/02 10:32:23;;;;;;;63.43;29.63;;;1.70;99.90;;;;;;4946735;28;20223;-77
2022/12/02 10:35:03;;;;;;;54.77;27.60;;;1.80;99.90;;;;;;4938751;28;20235;-77
2022/12/02 10:37:32;;;;;;;56.03;28.23;;;1.60;99.90;;;;;;4941608;28;20960;-77
2022/12/02 10:40:15;;;;;;;57.17;28.13;;;1.60;99.90;;;;;;4939342;29;20866;-77
2022/12/02 10:42:42;;;;;;;55.80;28.33;;;1.50;99.90;;;;;;4937190;28;20734;-77
2022/12/02 10:45:16;;;;;;;56.60;28.97;;;1.50;99.90;;;;;;4944527;28;20229;-77
2022/12/02 10:47:44;;;;;;;56.87;28.27;;;1.50;99.90;;;;;;4937130;28;20237;-77
2022/12/02 10:50:23;;;;;;;60.80;29.63;;;1.50;99.90;;;;;;4940040;28;20216;-77
2022/12/02 10:52:51;;;;;;;55.33;26.90;;;1.50;99.90;;;;;;4921102;29;20257;-77
2022/12/02 10:55:21;;;;;;;54.03;27.97;;;1.50;99.90;;;;;;4938851;28;20278;-77
2022/12/02 10:57:49;;;;;;;59.77;29.13;;;1.50;99.90;;;;;;4953547;28;20283;-77
2022/12/02 11:00:19;;;;;;;55.70;28.23;;;1.50;99.90;;;;;;4944508;28;20747;-77
2022/12/02 11:02:49;;;;;;;56.53;28.67;;;1.50;99.90;;;;;;4942196;28;20589;-77
2022/12/02 11:05:19;;;;;;;61.00;29.07;;;1.60;99.90;;;;;;4936019;28;20225;-77
2022/12/02 11:07:56;;;;;;;58.03;26.97;;;1.60;99.90;;;;;;4939861;28;20262;-77
2022/12/02 11:10:26;;;;;;;58.53;27.87;;;1.60;99.90;;;;;;4940150;28;20215;-76
2022/12/02 11:13:29;;;;;;;56.60;28.20;;;1.60;99.90;;;;;;4944531;28;20632;-77
2022/12/02 11:16:16;;;;;;;52.87;26.47;;;1.60;99.90;;;;;;4926127;28;20639;-77
2022/12/02 11:18:57;;;;;;;54.73;27.17;;;1.60;99.90;;;;;;4940795;28;20246;-77
2022/12/02 11:21:38;;;;;;;55.10;27.83;;;1.60;99.90;;;;;;4945387;28;20242;-77
2022/12/02 11:24:36;;;;;;;53.97;27.37;;;1.60;99.90;;;;;;4935890;28;20905;-79
2022/12/02 11:27:07;;;;;;;61.63;28.00;;;1.60;99.90;;;;;;4932453;28;20258;-80
2022/12/02 11:29:36;;;;;;;61.70;28.17;;;1.60;99.90;;;;;;4935860;28;20233;-79
2022/12/02 11:32:15;;;;;;;53.97;26.17;;;1.60;99.90;;;;;;4943814;28;20238;-79
2022/12/02 11:34:46;;;;;;;53.57;26.33;;;1.60;99.90;;;;;;4940297;28;20240;-79
2022/12/02 11:37:37;;;;;;;50.83;27.10;;;1.60;99.90;;;;;;4935240;28;20794;-79
2022/12/02 11:40:06;;;;;;;58.27;27.57;;;1.60;99.90;;;;;;4939270;29;20728;-79
2022/12/02 11:42:36;;;;;;;52.37;26.20;;;1.60;99.90;;;;;;4945093;28;20225;-79
2022/12/02 11:45:33;;;;;;;49.53;25.83;;;1.60;99.90;;;;;;4937440;28;20220;-79
2022/12/02 11:48:03;;;;;;;55.57;27.17;;;1.60;99.90;;;;;;4934544;28;20475;-79
2022/12/02 11:50:39;;;;;;;52.23;26.23;;;1.60;99.90;;;;;;4938398;28;20610;-78
2022/12/02 11:53:14;;;;;;;58.17;26.37;;;1.60;99.90;;;;;;4935125;28;20242;-78
2022/12/02 11:55:42;;;;;;;57.20;27.07;;;1.60;99.90;;;;;;4933791;28;20245;-77
2022/12/02 11:58:18;;;;;;;51.47;26.90;;;1.60;99.90;;;;;;4937841;28;20652;-79
2022/12/02 12:01:01;;;;;;;51.47;25.70;;;1.60;99.90;;;;;;4938301;28;20310;-79
2022/12/02 12:03:29;;;;;;;49.30;24.70;;;1.60;99.90;;;;;;4929302;28;20619;-80
2022/12/02 12:06:08;;;;;;;51.10;25.80;;;1.70;99.90;;;;;;4943781;28;20251;-79
2022/12/02 12:08:35;;;;;;;51.40;25.97;;;1.70;99.90;;;;;;4939935;28;20223;-77
2022/12/02 12:11:34;;;;;;;53.20;26.13;;;1.70;99.90;;;;;;4932431;28;20231;-78
2022/12/02 12:14:06;;;;;;;50.47;25.30;;;1.70;99.90;;;;;;4865038;29;20241;-79
2022/12/02 12:16:35;;;;;;;51.67;26.60;;;1.70;99.90;;;;;;4917600;29;20231;-79
2022/12/02 12:19:23;;;;;;;136.63;31.03;;;1.70;99.90;;;;;;4938613;28;20218;-78
2022/12/02 12:21:54;;;;;;;54.70;26.17;;;1.70;99.90;;;;;;4938094;29;20241;-78
2022/12/02 12:24:29;;;;;;;51.33;25.77;;;1.70;99.90;;;;;;4943334;28;20333;-79
2022/12/02 12:26:58;;;;;;;51.53;25.23;;;1.70;99.90;;;;;;4940352;28;20231;-80
2022/12/02 12:29:26;;;;;;;47.37;25.00;;;1.70;99.90;;;;;;4931137;28;20232;-77
2022/12/02 12:31:53;;;;;;;50.57;25.57;;;1.70;99.90;;;;;;4936924;29;20229;-76
2022/12/02 12:34:22;;;;;;;46.40;24.47;;;1.70;99.90;;;;;;4931426;28;20731;-76
2022/12/02 12:36:49;;;;;;;53.57;26.47;;;1.60;99.90;;;;;;4935708;28;20235;-77
2022/12/02 12:39:17;;;;;;;51.00;26.00;;;1.60;99.90;;;;;;4934304;28;20290;-78
2022/12/02 12:41:46;;;;;;;52.17;25.73;;;1.60;99.90;;;;;;4934851;28;20537;-78
2022/12/02 12:44:13;;;;;;;55.13;25.53;;;1.60;99.90;;;;;;4935420;28;20916;-79
2022/12/02 12:46:40;;;;;;;60.73;27.33;;;1.60;99.90;;;;;;4941733;28;20228;-77
2022/12/02 12:49:06;;;;;;;49.67;24.97;;;1.50;99.90;;;;;;4940503;28;20222;-77
2022/12/02 12:51:34;;;;;;;48.93;24.60;;;1.50;99.90;;;;;;4937153;28;20250;-79
2022/12/02 12:54:01;;;;;;;68.90;25.30;;;1.50;99.90;;;;;;4938244;28;20227;-78
2022/12/02 12:56:28;;;;;;;50.33;24.00;;;1.60;99.90;;;;;;4942206;28;20731;-78